Time;durP1;ratioP1;P1;durP2;ratioP2;P2;SDS_P1;SDS_P2;PMS_P1;PMS_P2;Temp;Humidity;BMP_temperature;BMP_pressure;BME280_temperature;BME280_humidity;BME280_pressure;Samples;Min_cycle;Max_cycle;Signal;HPM_P1;HPM_P2
2023/10/12 00:02:00;;;;;;;0.00;0.00;;;13.80;92.40;;;;;;5024482;28;20033;-66
2023/10/12 00:07:45;;;;;;;0.00;0.00;;;13.90;92.50;;;;;;4988922;28;20730;-67
2023/10/12 00:12:47;;;;;;;0.00;0.00;;;14.00;92.50;;;;;;5010484;28;20068;-66
2023/10/12 00:17:47;;;;;;;0.00;0.00;;;14.00;92.40;;;;;;5020510;28;20061;-67
2023/10/12 00:20:34;;;;;;;0.00;0.00;;;14.00;92.40;;;;;;5030911;28;20099;-67
2023/10/12 00:23:09;;;;;;;0.00;0.00;;;14.00;92.20;;;;;;5011455;28;20548;-67
2023/10/12 00:25:54;;;;;;;0.10;0.10;;;13.80;92.10;;;;;;5010830;28;20112;-66
2023/10/12 00:28:21;;;;;;;0.00;0.00;;;13.80;92.00;;;;;;5030617;28;20045;-67
2023/10/12 00:30:49;;;;;;;0.00;0.00;;;13.80;91.80;;;;;;5030901;28;20057;-67
2023/10/12 00:33:17;;;;;;;0.00;0.00;;;13.80;91.90;;;;;;4992269;23;20671;-67
2023/10/12 00:35:48;;;;;;;0.00;0.00;;;13.80;91.90;;;;;;5009108;28;20046;-67
2023/10/12 00:38:18;;;;;;;0.00;0.00;;;13.80;91.80;;;;;;5011279;28;20081;-67
2023/10/12 00:41:07;;;;;;;0.00;0.00;;;13.80;91.90;;;;;;5010017;28;20061;-67
2023/10/12 00:43:49;;;;;;;0.00;0.00;;;13.80;91.80;;;;;;4993729;28;20093;-67
2023/10/12 00:46:21;;;;;;;1.00;0.90;;;13.80;91.80;;;;;;5011062;28;20458;-66
2023/10/12 00:48:49;;;;;;;0.10;0.10;;;13.80;91.70;;;;;;5007486;28;20814;-66
2023/10/12 00:51:18;;;;;;;0.00;0.00;;;13.80;91.50;;;;;;5009690;28;20034;-66
2023/10/12 00:53:57;;;;;;;0.00;0.00;;;13.70;91.40;;;;;;4989310;28;20073;-65
2023/10/12 00:56:28;;;;;;;0.00;0.00;;;13.70;91.20;;;;;;5008904;28;20054;-65
2023/10/12 00:58:55;;;;;;;0.00;0.00;;;13.60;90.60;;;;;;5009233;28;20393;-67
2023/10/12 01:01:22;;;;;;;0.00;0.00;;;13.60;90.80;;;;;;5009329;28;20041;-66
2023/10/12 01:03:49;;;;;;;0.00;0.00;;;13.70;90.70;;;;;;5004764;28;20058;-65
2023/10/12 01:06:27;;;;;;;0.20;0.20;;;13.60;90.30;;;;;;4990894;28;20086;-66
2023/10/12 01:08:57;;;;;;;0.00;0.00;;;13.60;90.30;;;;;;5030115;28;20053;-66
2023/10/12 01:11:26;;;;;;;0.00;0.00;;;13.60;90.00;;;;;;5028250;28;20046;-66
2023/10/12 01:14:09;;;;;;;0.00;0.00;;;13.60;89.60;;;;;;5008723;28;20057;-66
2023/10/12 01:16:50;;;;;;;0.00;0.00;;;13.60;89.20;;;;;;5008719;28;20129;-65
2023/10/12 01:19:23;;;;;;;0.00;0.00;;;13.60;89.00;;;;;;5010008;28;20034;-66
2023/10/12 01:21:55;;;;;;;0.00;0.00;;;13.50;88.90;;;;;;5004287;28;20041;-66
2023/10/12 01:24:30;;;;;;;0.00;0.00;;;13.50;88.80;;;;;;5019005;28;20052;-66
2023/10/12 01:26:56;;;;;;;0.00;0.00;;;13.50;88.80;;;;;;5010477;28;20128;-65
2023/10/12 01:29:22;;;;;;;0.00;0.00;;;13.50;88.60;;;;;;5029780;28;20057;-66
2023/10/12 01:34:37;;;;;;;0.00;0.00;;;13.50;88.70;;;;;;5009229;28;20556;-66
2023/10/12 01:37:11;;;;;;;0.00;0.00;;;13.60;88.80;;;;;;5009923;28;20034;-66
2023/10/12 01:39:40;;;;;;;0.00;0.00;;;13.60;88.80;;;;;;5009088;28;20050;-66
2023/10/12 01:42:11;;;;;;;0.00;0.00;;;13.60;88.70;;;;;;5021099;28;20491;-65
2023/10/12 01:44:37;;;;;;;0.00;0.00;;;13.60;88.80;;;;;;5022319;28;20057;-66
2023/10/12 01:47:03;;;;;;;0.00;0.00;;;13.60;89.00;;;;;;5027504;28;20402;-65
2023/10/12 01:49:30;;;;;;;0.00;0.00;;;13.70;89.10;;;;;;5022064;28;20076;-66
2023/10/12 01:51:57;;;;;;;0.00;0.00;;;13.70;89.10;;;;;;5019306;28;20121;-65
2023/10/12 01:54:24;;;;;;;0.00;0.00;;;13.70;89.20;;;;;;5008840;28;20573;-66
2023/10/12 01:56:51;;;;;;;0.08;0.08;;;13.70;89.10;;;;;;5008239;28;20060;-66
2023/10/12 01:59:19;;;;;;;0.00;0.00;;;13.60;88.80;;;;;;5011267;28;20179;-65
2023/10/12 02:01:47;;;;;;;0.00;0.00;;;13.60;89.10;;;;;;5018397;28;20132;-66
2023/10/12 02:04:19;;;;;;;0.00;0.00;;;13.60;89.10;;;;;;5008028;28;20049;-65
2023/10/12 02:06:44;;;;;;;0.00;0.00;;;13.60;89.10;;;;;;5008579;28;20054;-66
2023/10/12 02:09:10;;;;;;;0.00;0.00;;;13.70;89.20;;;;;;5008911;28;20049;-66
2023/10/12 02:12:03;;;;;;;0.00;0.00;;;13.60;89.20;;;;;;5009612;28;20522;-66
2023/10/12 02:14:33;;;;;;;0.00;0.00;;;13.70;89.30;;;;;;5008048;28;20049;-66
2023/10/12 02:17:02;;;;;;;0.00;0.00;;;13.70;89.30;;;;;;5020266;28;20561;-66
2023/10/12 02:19:36;;;;;;;0.00;0.00;;;13.70;89.20;;;;;;5030337;28;20041;-65
2023/10/12 02:22:03;;;;;;;0.00;0.00;;;13.70;89.20;;;;;;5029622;28;20045;-65
2023/10/12 02:24:29;;;;;;;0.00;0.00;;;13.60;89.30;;;;;;5030939;28;20067;-65
2023/10/12 02:26:55;;;;;;;0.00;0.00;;;13.70;89.30;;;;;;5017322;28;20050;-66
2023/10/12 02:29:21;;;;;;;0.00;0.00;;;13.60;89.00;;;;;;5028623;28;20052;-66
2023/10/12 02:34:29;;;;;;;0.00;0.00;;;13.60;89.20;;;;;;5012506;28;20423;-65
2023/10/12 02:39:42;;;;;;;0.00;0.00;;;13.60;89.00;;;;;;5020237;28;20132;-66
2023/10/12 02:47:30;;;;;;;0.00;0.00;;;13.70;89.50;;;;;;5027209;28;20038;-65
2023/10/12 02:50:01;;;;;;;0.00;0.00;;;13.70;89.50;;;;;;5013069;28;20050;-65
2023/10/12 02:52:32;;;;;;;0.00;0.00;;;13.70;89.60;;;;;;5031903;28;20064;-66
2023/10/12 02:55:06;;;;;;;0.00;0.00;;;13.80;89.70;;;;;;5032529;28;20045;-66
2023/10/12 02:57:32;;;;;;;0.00;0.00;;;13.70;89.70;;;;;;5032262;28;20072;-66
2023/10/12 03:00:14;;;;;;;0.00;0.00;;;13.60;89.70;;;;;;5015616;28;20502;-66
2023/10/12 03:02:44;;;;;;;0.00;0.00;;;13.70;89.80;;;;;;5031990;28;20050;-66
2023/10/12 03:05:17;;;;;;;0.00;0.00;;;13.70;89.80;;;;;;5031992;28;20049;-65
2023/10/12 03:07:44;;;;;;;0.00;0.00;;;13.70;89.70;;;;;;5031577;28;20041;-66
2023/10/12 03:10:26;;;;;;;0.00;0.00;;;13.60;89.70;;;;;;5030924;28;20684;-65
2023/10/12 03:12:55;;;;;;;0.00;0.00;;;13.60;89.70;;;;;;5022381;28;20491;-65
2023/10/12 03:15:40;;;;;;;0.00;0.00;;;13.60;89.60;;;;;;5028449;28;20098;-66
2023/10/12 03:18:11;;;;;;;0.00;0.00;;;13.60;89.60;;;;;;5040518;28;20045;-65
2023/10/12 03:20:37;;;;;;;0.00;0.00;;;13.60;89.70;;;;;;5047701;28;20054;-66
2023/10/12 03:23:13;;;;;;;0.00;0.00;;;13.60;89.70;;;;;;5052073;28;20045;-66
2023/10/12 03:25:43;;;;;;;0.00;0.00;;;13.60;89.70;;;;;;5031976;28;20111;-67
2023/10/12 03:28:13;;;;;;;0.00;0.00;;;13.60;89.70;;;;;;5012109;28;20181;-66
2023/10/12 03:30:53;;;;;;;0.00;0.00;;;13.60;89.50;;;;;;5029101;28;20094;-65
2023/10/12 03:33:19;;;;;;;0.00;0.00;;;13.60;89.60;;;;;;5023036;28;20119;-66
2023/10/12 03:38:33;;;;;;;0.00;0.00;;;13.60;89.50;;;;;;5019826;28;20053;-65
2023/10/12 03:44:04;;;;;;;0.00;0.00;;;13.50;89.50;;;;;;4998901;28;20080;-66
2023/10/12 03:46:32;;;;;;;0.00;0.00;;;13.50;89.20;;;;;;5028171;28;20053;-65
2023/10/12 03:49:17;;;;;;;0.00;0.00;;;13.40;89.10;;;;;;5017213;28;20122;-65
2023/10/12 03:51:43;;;;;;;0.00;0.00;;;13.40;89.10;;;;;;5029424;28;20375;-65
2023/10/12 03:54:18;;;;;;;0.00;0.00;;;13.40;89.00;;;;;;5028224;28;20080;-65
2023/10/12 03:56:48;;;;;;;0.00;0.00;;;13.40;88.90;;;;;;5013291;28;20102;-66
2023/10/12 03:59:19;;;;;;;0.00;0.00;;;13.40;88.80;;;;;;5029918;28;20049;-65
2023/10/12 04:01:46;;;;;;;0.00;0.00;;;13.40;88.90;;;;;;5030320;28;20128;-65
2023/10/12 04:04:29;;;;;;;0.00;0.00;;;13.40;88.90;;;;;;5029111;28;20100;-65
2023/10/12 04:09:42;;;;;;;0.00;0.00;;;13.30;88.50;;;;;;5051362;28;20049;-65
2023/10/12 04:14:49;;;;;;;0.00;0.00;;;13.30;88.20;;;;;;5035818;28;20052;-65
2023/10/12 04:17:34;;;;;;;0.00;0.00;;;13.30;88.30;;;;;;5030584;28;20055;-65
2023/10/12 04:25:13;;;;;;;0.00;0.00;;;13.30;88.10;;;;;;5029541;28;20050;-65
2023/10/12 04:27:57;;;;;;;0.00;0.00;;;13.40;88.30;;;;;;5030396;28;20037;-65
2023/10/12 04:30:32;;;;;;;0.00;0.00;;;13.40;88.20;;;;;;5030766;28;20049;-65
2023/10/12 04:33:17;;;;;;;0.00;0.00;;;13.30;88.00;;;;;;5029883;28;20054;-66
2023/10/12 04:35:52;;;;;;;0.00;0.00;;;13.30;87.80;;;;;;5022707;28;20052;-65
2023/10/12 04:43:36;;;;;;;0.00;0.00;;;13.30;87.10;;;;;;5014635;28;20128;-66
2023/10/12 04:48:43;;;;;;;0.00;0.00;;;13.20;87.20;;;;;;5012321;28;20053;-66
2023/10/12 04:51:18;;;;;;;0.20;0.20;;;13.20;87.20;;;;;;5026730;28;20045;-65
2023/10/12 04:53:57;;;;;;;0.00;0.00;;;13.20;87.10;;;;;;5024645;28;20065;-66
2023/10/12 04:56:25;;;;;;;0.00;0.00;;;13.20;87.10;;;;;;5026798;28;20045;-66
2023/10/12 04:58:57;;;;;;;0.00;0.00;;;13.20;87.10;;;;;;5028169;28;20457;-66
2023/10/12 05:01:40;;;;;;;0.00;0.00;;;13.20;87.10;;;;;;5030219;28;20073;-66
2023/10/12 05:04:34;;;;;;;0.05;0.05;;;13.20;87.20;;;;;;5019786;28;20057;-66
2023/10/12 05:07:27;;;;;;;0.00;0.00;;;13.10;87.20;;;;;;5014832;28;20053;-66
2023/10/12 05:09:51;;;;;;;0.00;0.00;;;13.20;87.30;;;;;;5028572;28;20057;-65
2023/10/12 05:12:25;;;;;;;0.00;0.00;;;13.20;87.40;;;;;;5030687;28;20107;-66
2023/10/12 05:15:01;;;;;;;0.00;0.00;;;13.20;87.40;;;;;;5010677;28;20050;-65
2023/10/12 05:17:27;;;;;;;0.00;0.00;;;13.10;87.30;;;;;;5027798;28;20041;-64
2023/10/12 05:19:53;;;;;;;0.00;0.00;;;13.10;87.10;;;;;;5028821;28;20041;-65
2023/10/12 05:22:20;;;;;;;0.00;0.00;;;13.10;87.20;;;;;;5028407;28;20449;-66
2023/10/12 05:24:48;;;;;;;0.00;0.00;;;13.10;87.30;;;;;;5031542;28;20498;-66
2023/10/12 05:27:24;;;;;;;0.00;0.00;;;13.20;87.30;;;;;;5029010;28;20132;-66
2023/10/12 05:29:59;;;;;;;0.00;0.00;;;13.10;87.20;;;;;;5028345;28;20495;-65
2023/10/12 05:32:37;;;;;;;0.00;0.00;;;13.10;87.30;;;;;;5009177;28;20070;-65
2023/10/12 05:35:06;;;;;;;0.00;0.00;;;13.10;87.40;;;;;;5016079;28;20049;-66
2023/10/12 05:37:48;;;;;;;0.00;0.00;;;13.10;87.20;;;;;;5006080;28;20053;-67
2023/10/12 05:40:15;;;;;;;0.00;0.00;;;13.10;87.40;;;;;;5025765;28;20458;-64
2023/10/12 05:42:41;;;;;;;0.00;0.00;;;13.10;87.60;;;;;;5027414;28;20212;-65
2023/10/12 05:45:21;;;;;;;0.00;0.00;;;13.00;87.70;;;;;;5023850;28;20168;-65
2023/10/12 05:47:51;;;;;;;0.00;0.00;;;13.00;87.90;;;;;;5027397;28;20068;-65
2023/10/12 05:50:17;;;;;;;0.00;0.00;;;13.10;88.10;;;;;;5025841;28;20065;-66
2023/10/12 05:52:42;;;;;;;0.00;0.00;;;13.00;88.10;;;;;;5017244;28;20077;-66
2023/10/12 05:55:21;;;;;;;0.00;0.00;;;13.00;88.20;;;;;;5020818;28;20062;-63
2023/10/12 05:57:50;;;;;;;0.00;0.00;;;13.00;88.30;;;;;;5022676;28;20099;-64
2023/10/12 06:00:35;;;;;;;0.00;0.00;;;12.90;88.40;;;;;;5023653;28;20336;-65
2023/10/12 06:03:05;;;;;;;0.38;0.38;;;12.90;88.50;;;;;;5019056;28;20066;-65
2023/10/12 06:05:31;;;;;;;0.00;0.00;;;12.90;88.50;;;;;;5008813;28;20053;-65
2023/10/12 06:08:00;;;;;;;0.00;0.00;;;12.90;88.50;;;;;;5014961;28;20084;-63
2023/10/12 06:10:29;;;;;;;0.00;0.00;;;12.80;88.60;;;;;;5025229;28;20127;-62
2023/10/12 06:12:58;;;;;;;0.00;0.00;;;12.80;89.00;;;;;;5025704;28;20057;-63
2023/10/12 06:15:30;;;;;;;0.00;0.00;;;12.90;89.10;;;;;;5020898;28;20052;-63
2023/10/12 06:17:57;;;;;;;0.08;0.08;;;12.90;89.10;;;;;;5009166;28;20050;-63
2023/10/12 06:20:36;;;;;;;0.00;0.00;;;12.90;89.10;;;;;;5024982;28;20049;-63
2023/10/12 06:23:08;;;;;;;0.00;0.00;;;12.90;89.10;;;;;;5014833;28;20049;-65
2023/10/12 06:25:38;;;;;;;0.00;0.00;;;12.90;89.00;;;;;;5012530;28;20054;-68
2023/10/12 06:28:16;;;;;;;0.00;0.00;;;13.10;90.20;;;;;;5025704;28;20049;-68
2023/10/12 06:30:45;;;;;;;0.00;0.00;;;13.10;90.10;;;;;;5014574;28;20081;-65
2023/10/12 06:33:15;;;;;;;0.00;0.00;;;13.00;89.90;;;;;;5012690;28;20042;-66
2023/10/12 06:35:59;;;;;;;0.00;0.00;;;13.00;89.70;;;;;;5026322;28;20376;-68
2023/10/12 06:38:38;;;;;;;0.00;0.00;;;12.90;89.60;;;;;;5022030;28;20055;-68
2023/10/12 06:46:17;;;;;;;0.00;0.00;;;13.10;90.80;;;;;;5015227;28;20115;-67
2023/10/12 06:48:47;;;;;;;0.00;0.00;;;13.10;90.30;;;;;;5025386;28;20371;-68
2023/10/12 06:51:16;;;;;;;0.00;0.00;;;13.00;90.10;;;;;;5014756;28;20054;-68
2023/10/12 06:53:44;;;;;;;0.00;0.00;;;13.00;89.90;;;;;;5013312;28;20057;-69
2023/10/12 06:58:40;;;;;;;0.00;0.00;;;13.10;89.90;;;;;;5028727;28;20053;-68
2023/10/12 07:03:50;;;;;;;1.00;0.60;;;13.10;89.50;;;;;;5031781;28;20494;-68
2023/10/12 07:06:16;;;;;;;0.00;0.00;;;13.10;88.70;;;;;;5032083;28;20048;-68
2023/10/12 07:08:51;;;;;;;0.00;0.00;;;13.20;88.90;;;;;;5033379;28;20041;-69
2023/10/12 07:11:20;;;;;;;0.00;0.00;;;13.20;88.90;;;;;;5032284;28;20057;-68
2023/10/12 07:13:46;;;;;;;0.00;0.00;;;13.20;88.90;;;;;;5031770;28;20129;-68
2023/10/12 07:16:16;;;;;;;0.00;0.00;;;13.20;88.80;;;;;;5027128;28;20034;-69
2023/10/12 07:18:44;;;;;;;0.00;0.00;;;13.30;88.80;;;;;;5012608;28;20050;-68
2023/10/12 07:21:21;;;;;;;0.00;0.00;;;13.40;88.70;;;;;;5012302;28;20042;-68
2023/10/12 07:23:53;;;;;;;0.00;0.00;;;13.40;88.30;;;;;;5012205;28;20132;-68
2023/10/12 07:26:19;;;;;;;0.00;0.00;;;13.40;88.20;;;;;;5012430;28;20469;-68
2023/10/12 07:28:49;;;;;;;0.00;0.00;;;13.60;88.30;;;;;;5012381;28;20136;-68
2023/10/12 07:33:52;;;;;;;0.00;0.00;;;13.60;88.10;;;;;;5013254;28;20527;-71
2023/10/12 07:36:17;;;;;;;0.00;0.00;;;13.70;88.00;;;;;;5023210;28;20045;-72
2023/10/12 07:39:14;;;;;;;0.00;0.00;;;13.70;88.00;;;;;;5024015;28;20095;-72
2023/10/12 07:41:41;;;;;;;0.00;0.00;;;13.80;87.90;;;;;;5029861;28;20050;-72
2023/10/12 07:44:07;;;;;;;0.00;0.00;;;13.80;87.70;;;;;;5017810;28;20053;-72
2023/10/12 07:46:35;;;;;;;2.10;0.90;;;14.00;87.60;;;;;;5022621;28;20506;-72
2023/10/12 07:49:22;;;;;;;0.00;0.00;;;14.00;87.10;;;;;;5021180;28;20192;-72
2023/10/12 07:51:59;;;;;;;0.00;0.00;;;14.00;87.20;;;;;;5014183;28;20050;-71
2023/10/12 07:54:46;;;;;;;0.00;0.00;;;14.10;87.20;;;;;;5014550;28;20091;-71
2023/10/12 07:57:10;;;;;;;0.00;0.00;;;14.10;87.00;;;;;;5022498;28;20049;-71
2023/10/12 07:59:38;;;;;;;0.00;0.00;;;14.10;86.80;;;;;;5023715;28;20410;-72
2023/10/12 08:02:08;;;;;;;0.00;0.00;;;14.20;86.40;;;;;;5001445;28;20041;-71
2023/10/12 08:04:34;;;;;;;0.00;0.00;;;14.20;86.30;;;;;;5010292;28;20144;-70
2023/10/12 08:07:06;;;;;;;0.00;0.00;;;14.30;86.40;;;;;;5010104;28;20121;-71
2023/10/12 08:11:58;;;;;;;0.00;0.00;;;14.30;86.40;;;;;;5027360;28;20124;-71
2023/10/12 08:19:43;;;;;;;0.00;0.00;;;14.30;85.40;;;;;;5011525;28;20054;-72
2023/10/12 08:22:22;;;;;;;0.00;0.00;;;14.30;85.50;;;;;;5027764;28;20041;-72
2023/10/12 08:24:49;;;;;;;0.00;0.00;;;14.40;85.60;;;;;;5030427;28;20056;-73
2023/10/12 08:27:18;;;;;;;0.00;0.00;;;14.50;85.50;;;;;;5029054;28;20049;-73
2023/10/12 08:32:16;;;;;;;0.00;0.00;;;14.60;85.70;;;;;;5029756;28;20140;-70
2023/10/12 08:34:42;;;;;;;0.08;0.08;;;14.60;85.60;;;;;;5025680;28;20050;-70
2023/10/12 08:37:20;;;;;;;0.00;0.00;;;14.60;85.50;;;;;;5020878;28;20071;-71
2023/10/12 08:39:51;;;;;;;0.00;0.00;;;14.60;85.50;;;;;;5031134;28;20136;-71
2023/10/12 08:45:08;;;;;;;0.00;0.00;;;14.70;85.60;;;;;;5030743;28;20057;-71
2023/10/12 08:52:50;;;;;;;0.00;0.00;;;14.90;85.40;;;;;;5016926;28;20041;-71
2023/10/12 08:55:19;;;;;;;0.00;0.00;;;14.90;85.40;;;;;;5030007;28;20045;-71
2023/10/12 08:57:55;;;;;;;0.00;0.00;;;14.90;85.10;;;;;;5028790;28;20049;-71
2023/10/12 09:03:08;;;;;;;0.00;0.00;;;15.00;84.20;;;;;;5027195;28;20140;-71
2023/10/12 09:05:35;;;;;;;0.00;0.00;;;15.00;83.70;;;;;;5009792;28;20053;-71
2023/10/12 09:13:24;;;;;;;0.00;0.00;;;15.00;83.60;;;;;;5026281;28;20049;-71
2023/10/12 09:15:59;;;;;;;0.00;0.00;;;15.00;83.50;;;;;;5028194;28;20088;-71
2023/10/12 09:18:43;;;;;;;0.00;0.00;;;15.00;82.90;;;;;;5005583;28;20095;-72
2023/10/12 09:26:37;;;;;;;0.00;0.00;;;15.20;83.90;;;;;;5013015;28;20053;-72
2023/10/12 09:36:43;;;;;;;0.00;0.00;;;15.20;79.00;;;;;;5019404;28;20049;-71
2023/10/12 09:39:14;;;;;;;0.00;0.00;;;15.30;79.90;;;;;;5009538;28;20046;-71
2023/10/12 09:41:41;;;;;;;0.00;0.00;;;15.30;79.60;;;;;;5015539;28;20649;-71
2023/10/12 09:44:11;;;;;;;0.00;0.00;;;15.30;77.70;;;;;;5018713;28;20076;-72
2023/10/12 09:46:47;;;;;;;0.00;0.00;;;15.40;79.10;;;;;;5010438;28;20058;-71
2023/10/12 09:49:22;;;;;;;0.00;0.00;;;15.40;79.10;;;;;;5029995;28;20046;-71
2023/10/12 09:51:51;;;;;;;0.00;0.00;;;15.50;79.30;;;;;;5029369;28;20164;-72
2023/10/12 09:54:28;;;;;;;0.00;0.00;;;15.40;77.10;;;;;;5000909;28;20132;-72
2023/10/12 09:57:16;;;;;;;0.00;0.00;;;15.50;78.10;;;;;;5009115;28;20057;-73
2023/10/12 09:59:51;;;;;;;0.00;0.00;;;15.40;76.70;;;;;;5017658;28;20049;-73
2023/10/12 10:02:28;;;;;;;0.00;0.00;;;15.50;78.20;;;;;;5021304;28;20061;-72
2023/10/12 10:05:27;;;;;;;0.00;0.00;;;15.60;78.90;;;;;;5009148;28;20050;-72
2023/10/12 10:08:02;;;;;;;0.00;0.00;;;15.60;78.90;;;;;;5009190;28;20044;-72
2023/10/12 10:10:31;;;;;;;0.00;0.00;;;15.70;79.50;;;;;;5009332;28;20088;-72
2023/10/12 10:13:03;;;;;;;0.00;0.00;;;15.70;79.40;;;;;;5016170;28;20052;-73
2023/10/12 10:15:37;;;;;;;0.00;0.00;;;15.70;79.30;;;;;;4991535;28;20108;-73
2023/10/12 10:18:15;;;;;;;0.00;0.00;;;15.70;78.80;;;;;;5009146;28;20048;-73
2023/10/12 10:20:46;;;;;;;0.00;0.00;;;15.70;78.50;;;;;;5008684;28;20167;-73
2023/10/12 10:23:19;;;;;;;0.00;0.00;;;15.70;77.70;;;;;;5022074;28;20041;-72
2023/10/12 10:26:17;;;;;;;0.00;0.00;;;15.80;78.30;;;;;;5027503;28;20129;-74
2023/10/12 10:28:58;;;;;;;0.00;0.00;;;15.90;78.20;;;;;;5023556;28;20050;-73
2023/10/12 10:31:31;;;;;;;0.08;0.08;;;16.00;76.50;;;;;;5018860;28;20499;-74
2023/10/12 10:34:01;;;;;;;0.00;0.00;;;16.00;76.60;;;;;;5027608;28;20093;-75
2023/10/12 10:36:34;;;;;;;0.00;0.00;;;16.10;77.80;;;;;;5029240;28;20049;-75
2023/10/12 10:39:08;;;;;;;0.00;0.00;;;16.20;78.20;;;;;;5032674;28;20049;-75
2023/10/12 10:41:54;;;;;;;0.00;0.00;;;16.30;76.60;;;;;;5021964;28;20433;-75
2023/10/12 10:44:22;;;;;;;0.00;0.00;;;16.40;77.70;;;;;;5012738;28;20050;-75
2023/10/12 10:46:57;;;;;;;0.00;0.00;;;16.40;77.20;;;;;;5018185;28;20050;-74
2023/10/12 10:49:30;;;;;;;0.00;0.00;;;16.60;78.20;;;;;;5027999;28;20545;-75
2023/10/12 10:54:30;;;;;;;0.00;0.00;;;16.60;76.40;;;;;;5029220;28;20502;-74
2023/10/12 10:56:59;;;;;;;0.00;0.00;;;16.60;74.10;;;;;;5047272;28;20055;-75
2023/10/12 10:59:25;;;;;;;0.00;0.00;;;16.60;73.60;;;;;;5015558;28;20121;-74
2023/10/12 11:01:52;;;;;;;0.00;0.00;;;16.60;75.60;;;;;;5019281;28;20578;-74
2023/10/12 11:07:03;;;;;;;;;;;16.60;78.20;;;;;;5027288;28;20081;-74
2023/10/12 11:09:31;;;;;;;0.00;0.00;;;16.60;77.20;;;;;;5019256;28;19925;-74
2023/10/12 11:12:00;;;;;;;0.00;0.00;;;16.60;76.30;;;;;;5017992;28;20042;-74
2023/10/12 11:14:32;;;;;;;0.00;0.00;;;16.60;76.40;;;;;;5032018;28;20497;-74
2023/10/12 11:17:00;;;;;;;0.00;0.00;;;16.60;76.40;;;;;;5028020;28;20132;-74
2023/10/12 11:19:27;;;;;;;0.00;0.00;;;16.60;77.00;;;;;;5023160;28;20068;-75
2023/10/12 11:21:52;;;;;;;0.00;0.00;;;16.60;76.40;;;;;;5018152;28;20072;-75
2023/10/12 11:24:22;;;;;;;0.00;0.00;;;16.60;76.20;;;;;;5012937;28;20487;-74
2023/10/12 11:26:52;;;;;;;0.00;0.00;;;16.60;75.30;;;;;;5014175;28;20046;-74
2023/10/12 11:29:18;;;;;;;0.00;0.00;;;16.50;75.70;;;;;;5025601;28;20045;-74
2023/10/12 11:32:08;;;;;;;0.00;0.00;;;16.50;75.10;;;;;;5031636;28;20037;-74
2023/10/12 11:34:35;;;;;;;0.00;0.00;;;16.50;75.70;;;;;;5001817;28;20116;-74
2023/10/12 11:37:01;;;;;;;0.00;0.00;;;16.60;76.70;;;;;;5026645;28;20839;-74
2023/10/12 11:39:30;;;;;;;8.07;1.65;;;16.60;76.90;;;;;;5027296;28;20133;-74
2023/10/12 11:42:12;;;;;;;0.00;0.00;;;16.60;77.20;;;;;;5051629;28;20052;-74
2023/10/12 11:44:42;;;;;;;0.00;0.00;;;16.60;76.70;;;;;;5050925;28;20429;-74
2023/10/12 11:47:30;;;;;;;0.00;0.00;;;16.60;77.00;;;;;;5039188;28;20041;-75
2023/10/12 11:49:58;;;;;;;0.00;0.00;;;16.60;77.10;;;;;;5012011;28;20441;-73
2023/10/12 11:52:32;;;;;;;0.00;0.00;;;16.60;77.80;;;;;;5014210;28;20053;-73
2023/10/12 11:55:01;;;;;;;0.08;0.08;;;16.50;74.80;;;;;;5010972;28;20522;-73
2023/10/12 11:57:27;;;;;;;0.00;0.00;;;16.50;74.10;;;;;;5012273;28;20080;-74
2023/10/12 11:59:53;;;;;;;0.00;0.00;;;16.50;74.40;;;;;;5016617;28;20116;-73
2023/10/12 12:02:19;;;;;;;0.00;0.00;;;16.40;72.90;;;;;;5015112;28;20042;-74
2023/10/12 12:04:45;;;;;;;0.00;0.00;;;16.40;72.70;;;;;;5025366;28;20050;-73
2023/10/12 12:07:13;;;;;;;0.00;0.00;;;16.40;73.70;;;;;;5016374;28;20167;-74
2023/10/12 12:09:48;;;;;;;0.00;0.00;;;16.30;73.90;;;;;;5031208;28;20053;-73
2023/10/12 12:12:16;;;;;;;0.00;0.00;;;16.30;74.00;;;;;;5015264;28;20046;-74
2023/10/12 12:14:49;;;;;;;0.00;0.00;;;16.30;75.20;;;;;;5012104;28;20088;-73
2023/10/12 12:17:17;;;;;;;0.00;0.00;;;16.30;76.10;;;;;;5012577;28;20092;-73
2023/10/12 12:19:43;;;;;;;0.00;0.00;;;16.30;75.40;;;;;;5011028;28;20053;-74
2023/10/12 12:22:15;;;;;;;0.00;0.00;;;16.30;75.00;;;;;;5012828;28;20041;-74
2023/10/12 12:24:44;;;;;;;0.00;0.00;;;16.20;75.00;;;;;;5015135;28;20080;-74
2023/10/12 12:27:37;;;;;;;0.00;0.00;;;16.20;75.80;;;;;;5012195;28;20053;-74
2023/10/12 12:29:57;;;;;;;0.00;0.00;;;16.20;75.70;;;;;;5030513;28;20494;-73
2023/10/12 12:32:26;;;;;;;0.00;0.00;;;16.20;75.70;;;;;;5027052;28;20042;-73
2023/10/12 12:34:54;;;;;;;0.00;0.00;;;16.20;75.90;;;;;;5010258;28;20058;-73
2023/10/12 12:37:20;;;;;;;0.00;0.00;;;16.20;75.80;;;;;;5012302;28;20049;-73
2023/10/12 12:40:01;;;;;;;0.30;0.10;;;16.20;75.10;;;;;;5010529;28;20046;-74
2023/10/12 12:42:27;;;;;;;0.00;0.00;;;16.10;75.10;;;;;;5022367;28;20056;-71
2023/10/12 12:44:52;;;;;;;0.00;0.00;;;16.10;75.00;;;;;;5016667;28;20037;-71
2023/10/12 12:47:23;;;;;;;0.00;0.00;;;16.10;75.20;;;;;;5018827;28;20038;-72
2023/10/12 12:49:48;;;;;;;0.00;0.00;;;16.10;75.20;;;;;;5019519;28;20053;-73
2023/10/12 12:52:17;;;;;;;0.00;0.00;;;16.10;76.10;;;;;;5018715;28;20056;-72
2023/10/12 12:54:44;;;;;;;0.00;0.00;;;16.10;76.50;;;;;;5020808;28;20072;-72
2023/10/12 12:57:13;;;;;;;0.00;0.00;;;16.10;76.90;;;;;;5020417;28;20045;-73
2023/10/12 12:59:38;;;;;;;0.00;0.00;;;16.10;76.50;;;;;;5018287;28;20052;-73
2023/10/12 13:02:04;;;;;;;0.00;0.00;;;16.10;75.70;;;;;;5019175;28;20034;-72
2023/10/12 13:04:30;;;;;;;0.00;0.00;;;16.10;76.60;;;;;;5019419;28;20041;-73
2023/10/12 13:06:56;;;;;;;0.00;0.00;;;16.00;76.60;;;;;;5033130;28;20115;-72
2023/10/12 13:09:33;;;;;;;0.00;0.00;;;16.00;76.80;;;;;;5049927;28;20040;-72
2023/10/12 13:11:59;;;;;;;0.00;0.00;;;16.00;76.50;;;;;;5027513;28;20395;-73
2023/10/12 13:14:28;;;;;;;0.22;0.22;;;16.00;76.40;;;;;;5021207;28;20060;-72
2023/10/12 13:16:54;;;;;;;0.00;0.00;;;16.00;75.70;;;;;;5017403;28;20050;-70
2023/10/12 13:19:20;;;;;;;0.00;0.00;;;16.00;76.00;;;;;;5014654;28;20060;-71
2023/10/12 13:21:46;;;;;;;0.00;0.00;;;15.90;76.80;;;;;;5019477;28;20489;-72
2023/10/12 13:24:14;;;;;;;0.00;0.00;;;15.90;77.20;;;;;;5015077;28;20046;-72
2023/10/12 13:26:43;;;;;;;0.00;0.00;;;15.90;77.30;;;;;;5023273;28;20406;-72
2023/10/12 13:29:13;;;;;;;0.00;0.00;;;15.90;77.70;;;;;;5012391;28;20917;-72
2023/10/12 13:31:39;;;;;;;0.00;0.00;;;15.90;78.10;;;;;;5010109;28;20533;-72
2023/10/12 13:34:05;;;;;;;0.00;0.00;;;15.80;77.50;;;;;;5013189;28;20045;-72
2023/10/12 13:36:34;;;;;;;0.00;0.00;;;15.80;77.40;;;;;;5015981;28;20139;-72
2023/10/12 13:39:00;;;;;;;0.00;0.00;;;15.80;77.80;;;;;;5016119;28;20549;-72
2023/10/12 13:41:30;;;;;;;0.00;0.00;;;15.70;77.90;;;;;;5025910;28;20412;-72
2023/10/12 13:43:56;;;;;;;0.00;0.00;;;15.70;78.00;;;;;;5009486;28;20781;-72
2023/10/12 13:46:22;;;;;;;0.00;0.00;;;15.70;78.20;;;;;;5015307;28;20399;-72
2023/10/12 13:48:49;;;;;;;0.00;0.00;;;15.80;77.90;;;;;;5022879;28;20041;-72
2023/10/12 13:51:20;;;;;;;0.00;0.00;;;15.80;78.40;;;;;;5014494;28;20454;-72
2023/10/12 13:53:46;;;;;;;0.00;0.00;;;15.70;77.50;;;;;;5024894;28;20516;-72
2023/10/12 13:56:12;;;;;;;0.00;0.00;;;15.70;77.20;;;;;;5018856;28;20442;-72
2023/10/12 13:58:44;;;;;;;0.00;0.00;;;15.60;77.50;;;;;;5022538;28;20045;-72
2023/10/12 14:01:18;;;;;;;0.00;0.00;;;15.60;78.00;;;;;;5023997;28;20099;-72
2023/10/12 14:03:57;;;;;;;0.00;0.00;;;15.60;77.50;;;;;;5021185;28;20041;-72
2023/10/12 14:06:23;;;;;;;0.00;0.00;;;15.60;76.50;;;;;;5017935;28;20049;-72
2023/10/12 14:08:50;;;;;;;0.55;0.45;;;15.60;77.10;;;;;;5027680;28;20107;-71
2023/10/12 14:11:17;;;;;;;0.00;0.00;;;15.50;77.00;;;;;;5024305;28;20042;-72
2023/10/12 14:13:43;;;;;;;0.30;0.30;;;15.50;77.50;;;;;;5025544;28;20053;-72
2023/10/12 14:16:10;;;;;;;0.00;0.00;;;15.50;78.10;;;;;;5019072;28;20068;-72
2023/10/12 14:18:37;;;;;;;0.00;0.00;;;15.50;78.40;;;;;;5014900;28;20053;-72
2023/10/12 14:21:09;;;;;;;0.00;0.00;;;15.40;78.70;;;;;;5026090;28;20124;-72
2023/10/12 14:23:45;;;;;;;0.00;0.00;;;15.40;78.70;;;;;;5028520;28;20057;-72
2023/10/12 14:26:17;;;;;;;0.00;0.00;;;15.30;79.10;;;;;;5020622;28;20125;-72
2023/10/12 14:28:50;;;;;;;0.00;0.00;;;15.30;79.00;;;;;;5037395;28;20559;-72
2023/10/12 14:31:16;;;;;;;0.00;0.00;;;15.40;79.20;;;;;;5013047;28;20177;-72
2023/10/12 14:33:42;;;;;;;0.00;0.00;;;15.30;79.30;;;;;;5011524;28;20414;-72
2023/10/12 14:36:09;;;;;;;0.00;0.00;;;15.30;79.60;;;;;;5008442;28;20807;-71
2023/10/12 14:38:35;;;;;;;0.00;0.00;;;15.20;78.90;;;;;;5017254;28;20053;-72
2023/10/12 14:41:00;;;;;;;0.00;0.00;;;15.30;79.30;;;;;;5020795;28;20053;-72
2023/10/12 14:43:30;;;;;;;0.00;0.00;;;15.30;79.60;;;;;;5012606;28;20108;-72
2023/10/12 14:45:56;;;;;;;0.00;0.00;;;15.20;79.40;;;;;;5022374;28;20049;-72
2023/10/12 14:48:22;;;;;;;0.00;0.00;;;15.20;79.80;;;;;;5002665;28;20042;-72
2023/10/12 14:50:58;;;;;;;0.00;0.00;;;15.20;80.00;;;;;;5012552;28;20049;-72
2023/10/12 14:53:28;;;;;;;0.05;0.05;;;15.20;80.20;;;;;;5028311;28;20564;-72